Airport View

Enter AWOS ICAO identifier for current METAR.

ex. KFNL

KOVS 202253Z AUTO 04003KT 2 1/2SM -RA BR BKN014 OVC020 06/04 A3004 RMK AO2 RAB29 SLP178 P0000 T00610044

20 Oct 2020 23:18

Frequency: 126.775

Phone: 608-375-2712

Other Area AWOS: KPDC - KLNR - KMRJ - KY51

TAF AMD KDBQ 202200Z 2022/2118 09005KT 2SM -DZ BR OVC008 FM210000 VRB05KT 1SM -DZ BR OVC003 FM210500 26011KT 3SM -DZ BR OVC005 FM210700 29011KT 6SM BR OVC015 FM211100 33005KT P6SM BKN030